sensor_id;sensor_type;location;lat;lon;timestamp;P1;durP1;ratioP1;P2;durP2;ratioP2
38240;SDS011;24037;49.536;8.500;2022-11-03T00:00:25;7.85;;;3.80;;
38240;SDS011;24037;49.536;8.500;2022-11-03T00:02:51;8.73;;;4.78;;
38240;SDS011;24037;49.536;8.500;2022-11-03T00:05:17;9.13;;;4.80;;
38240;SDS011;24037;49.536;8.500;2022-11-03T00:08:02;8.98;;;3.65;;
38240;SDS011;24037;49.536;8.500;2022-11-03T00:10:29;12.38;;;3.85;;
38240;SDS011;24037;49.536;8.500;2022-11-03T00:12:55;7.15;;;3.45;;
38240;SDS011;24037;49.536;8.500;2022-11-03T00:15:22;10.38;;;3.22;;
38240;SDS011;24037;49.536;8.500;2022-11-03T00:17:48;15.20;;;5.18;;
38240;SDS011;24037;49.536;8.500;2022-11-03T00:20:14;7.20;;;3.47;;
38240;SDS011;24037;49.536;8.500;2022-11-03T00:22:40;11.10;;;3.95;;
38240;SDS011;24037;49.536;8.500;2022-11-03T00:25:06;10.35;;;3.97;;
38240;SDS011;24037;49.536;8.500;2022-11-03T00:27:32;9.20;;;3.95;;
38240;SDS011;24037;49.536;8.500;2022-11-03T00:29:59;7.32;;;3.47;;
38240;SDS011;24037;49.536;8.500;2022-11-03T00:32:25;7.50;;;3.00;;
38240;SDS011;24037;49.536;8.500;2022-11-03T00:34:51;11.20;;;4.35;;
38240;SDS011;24037;49.536;8.500;2022-11-03T00:37:17;10.60;;;4.57;;
38240;SDS011;24037;49.536;8.500;2022-11-03T00:39:43;8.93;;;4.10;;
38240;SDS011;24037;49.536;8.500;2022-11-03T00:42:09;8.88;;;4.00;;
38240;SDS011;24037;49.536;8.500;2022-11-03T00:44:35;10.88;;;4.32;;
38240;SDS011;24037;49.536;8.500;2022-11-03T00:47:02;11.02;;;4.65;;
38240;SDS011;24037;49.536;8.500;2022-11-03T00:49:28;11.82;;;3.88;;
38240;SDS011;24037;49.536;8.500;2022-11-03T00:51:54;8.32;;;3.50;;
38240;SDS011;24037;49.536;8.500;2022-11-03T00:54:20;7.35;;;3.58;;
38240;SDS011;24037;49.536;8.500;2022-11-03T00:56:46;9.93;;;3.50;;
38240;SDS011;24037;49.536;8.500;2022-11-03T00:59:12;9.18;;;3.75;;
38240;SDS011;24037;49.536;8.500;2022-11-03T01:01:39;9.75;;;4.20;;
38240;SDS011;24037;49.536;8.500;2022-11-03T01:04:08;11.02;;;4.15;;
38240;SDS011;24037;49.536;8.500;2022-11-03T01:06:54;9.75;;;3.63;;
38240;SDS011;24037;49.536;8.500;2022-11-03T01:09:29;10.00;;;3.42;;
38240;SDS011;24037;49.536;8.500;2022-11-03T01:12:08;8.55;;;3.75;;
38240;SDS011;24037;49.536;8.500;2022-11-03T01:14:43;6.85;;;3.95;;
38240;SDS011;24037;49.536;8.500;2022-11-03T01:17:13;10.30;;;4.03;;
38240;SDS011;24037;49.536;8.500;2022-11-03T01:19:44;9.50;;;4.43;;
38240;SDS011;24037;49.536;8.500;2022-11-03T01:22:10;8.23;;;3.92;;
38240;SDS011;24037;49.536;8.500;2022-11-03T01:24:38;9.50;;;3.42;;
38240;SDS011;24037;49.536;8.500;2022-11-03T01:27:06;8.00;;;4.13;;
38240;SDS011;24037;49.536;8.500;2022-11-03T01:29:33;9.35;;;3.58;;
38240;SDS011;24037;49.536;8.500;2022-11-03T01:32:00;12.80;;;5.82;;
38240;SDS011;24037;49.536;8.500;2022-11-03T01:34:26;8.98;;;4.03;;
38240;SDS011;24037;49.536;8.500;2022-11-03T01:36:52;8.68;;;4.57;;
38240;SDS011;24037;49.536;8.500;2022-11-03T01:39:18;8.43;;;4.35;;
38240;SDS011;24037;49.536;8.500;2022-11-03T01:41:46;10.00;;;4.28;;
38240;SDS011;24037;49.536;8.500;2022-11-03T01:49:21;9.32;;;4.38;;
38240;SDS011;24037;49.536;8.500;2022-11-03T01:51:49;11.95;;;4.45;;
38240;SDS011;24037;49.536;8.500;2022-11-03T01:54:20;9.45;;;4.30;;
38240;SDS011;24037;49.536;8.500;2022-11-03T01:56:48;8.98;;;4.00;;
38240;SDS011;24037;49.536;8.500;2022-11-03T01:59:17;13.60;;;5.38;;
38240;SDS011;24037;49.536;8.500;2022-11-03T02:01:46;11.25;;;4.80;;
38240;SDS011;24037;49.536;8.500;2022-11-03T02:04:15;11.52;;;4.15;;
38240;SDS011;24037;49.536;8.500;2022-11-03T02:06:51;9.32;;;3.55;;
38240;SDS011;24037;49.536;8.500;2022-11-03T02:09:23;9.52;;;4.10;;
38240;SDS011;24037;49.536;8.500;2022-11-03T02:11:50;10.93;;;5.55;;
38240;SDS011;24037;49.536;8.500;2022-11-03T02:14:42;13.32;;;5.05;;
38240;SDS011;24037;49.536;8.500;2022-11-03T02:17:15;13.63;;;6.70;;
38240;SDS011;24037;49.536;8.500;2022-11-03T02:27:59;13.45;;;5.38;;
38240;SDS011;24037;49.536;8.500;2022-11-03T02:30:26;11.82;;;4.57;;
38240;SDS011;24037;49.536;8.500;2022-11-03T02:33:08;10.55;;;5.78;;
38240;SDS011;24037;49.536;8.500;2022-11-03T02:35:51;10.05;;;4.38;;
38240;SDS011;24037;49.536;8.500;2022-11-03T02:38:21;14.07;;;5.18;;
38240;SDS011;24037;49.536;8.500;2022-11-03T02:40:52;12.33;;;4.93;;
38240;SDS011;24037;49.536;8.500;2022-11-03T02:43:20;15.70;;;5.53;;
38240;SDS011;24037;49.536;8.500;2022-11-03T02:45:48;12.82;;;4.78;;
38240;SDS011;24037;49.536;8.500;2022-11-03T02:48:17;13.98;;;5.47;;
38240;SDS011;24037;49.536;8.500;2022-11-03T02:50:45;11.90;;;4.63;;
38240;SDS011;24037;49.536;8.500;2022-11-03T02:53:14;9.98;;;4.93;;
38240;SDS011;24037;49.536;8.500;2022-11-03T03:01:34;10.73;;;4.45;;
38240;SDS011;24037;49.536;8.500;2022-11-03T03:04:13;12.93;;;4.28;;
38240;SDS011;24037;49.536;8.500;2022-11-03T03:07:05;10.88;;;6.50;;
38240;SDS011;24037;49.536;8.500;2022-11-03T03:09:42;11.75;;;4.72;;
38240;SDS011;24037;49.536;8.500;2022-11-03T03:12:19;12.38;;;5.65;;
38240;SDS011;24037;49.536;8.500;2022-11-03T03:14:47;11.77;;;4.72;;
38240;SDS011;24037;49.536;8.500;2022-11-03T03:25:24;15.10;;;6.57;;
38240;SDS011;24037;49.536;8.500;2022-11-03T03:27:52;8.00;;;4.43;;
38240;SDS011;24037;49.536;8.500;2022-11-03T03:30:25;15.52;;;5.45;;
38240;SDS011;24037;49.536;8.500;2022-11-03T03:32:53;12.05;;;5.20;;
38240;SDS011;24037;49.536;8.500;2022-11-03T03:35:23;17.85;;;4.70;;
38240;SDS011;24037;49.536;8.500;2022-11-03T03:37:52;9.82;;;5.15;;
38240;SDS011;24037;49.536;8.500;2022-11-03T03:40:24;8.23;;;5.05;;
38240;SDS011;24037;49.536;8.500;2022-11-03T03:42:55;12.18;;;5.60;;
38240;SDS011;24037;49.536;8.500;2022-11-03T03:45:23;12.07;;;5.00;;
38240;SDS011;24037;49.536;8.500;2022-11-03T03:47:51;8.07;;;4.45;;
38240;SDS011;24037;49.536;8.500;2022-11-03T03:50:17;15.50;;;4.95;;
38240;SDS011;24037;49.536;8.500;2022-11-03T03:52:44;11.38;;;4.50;;
38240;SDS011;24037;49.536;8.500;2022-11-03T03:55:16;9.93;;;4.38;;
38240;SDS011;24037;49.536;8.500;2022-11-03T03:57:45;10.27;;;4.25;;
38240;SDS011;24037;49.536;8.500;2022-11-03T04:00:12;9.07;;;4.03;;
38240;SDS011;24037;49.536;8.500;2022-11-03T04:02:40;11.23;;;4.82;;
38240;SDS011;24037;49.536;8.500;2022-11-03T04:05:07;12.02;;;4.47;;
38240;SDS011;24037;49.536;8.500;2022-11-03T04:07:33;8.23;;;3.97;;
38240;SDS011;24037;49.536;8.500;2022-11-03T04:10:19;11.30;;;4.25;;
38240;SDS011;24037;49.536;8.500;2022-11-03T04:12:46;10.00;;;4.65;;
38240;SDS011;24037;49.536;8.500;2022-11-03T04:15:31;11.43;;;5.47;;
38240;SDS011;24037;49.536;8.500;2022-11-03T04:18:19;11.68;;;4.90;;
38240;SDS011;24037;49.536;8.500;2022-11-03T04:21:05;11.93;;;4.05;;
38240;SDS011;24037;49.536;8.500;2022-11-03T04:23:52;9.88;;;4.45;;
38240;SDS011;24037;49.536;8.500;2022-11-03T04:26:19;7.63;;;4.05;;
38240;SDS011;24037;49.536;8.500;2022-11-03T04:28:48;9.10;;;4.53;;
38240;SDS011;24037;49.536;8.500;2022-11-03T04:31:16;9.73;;;5.70;;
38240;SDS011;24037;49.536;8.500;2022-11-03T04:33:43;17.40;;;5.03;;
38240;SDS011;24037;49.536;8.500;2022-11-03T04:41:15;11.00;;;4.07;;
38240;SDS011;24037;49.536;8.500;2022-11-03T04:43:42;7.60;;;3.92;;
38240;SDS011;24037;49.536;8.500;2022-11-03T04:46:22;10.27;;;4.80;;
38240;SDS011;24037;49.536;8.500;2022-11-03T04:48:51;9.52;;;3.75;;
38240;SDS011;24037;49.536;8.500;2022-11-03T04:51:22;8.88;;;4.30;;
38240;SDS011;24037;49.536;8.500;2022-11-03T04:53:54;10.45;;;4.47;;
38240;SDS011;24037;49.536;8.500;2022-11-03T04:56:23;8.75;;;4.35;;
38240;SDS011;24037;49.536;8.500;2022-11-03T04:58:50;8.52;;;3.75;;
38240;SDS011;24037;49.536;8.500;2022-11-03T05:01:18;8.73;;;4.10;;
38240;SDS011;24037;49.536;8.500;2022-11-03T05:03:49;9.07;;;3.90;;
38240;SDS011;24037;49.536;8.500;2022-11-03T05:06:19;9.07;;;4.00;;
38240;SDS011;24037;49.536;8.500;2022-11-03T05:08:49;7.70;;;4.50;;
38240;SDS011;24037;49.536;8.500;2022-11-03T05:11:31;11.53;;;6.23;;
38240;SDS011;24037;49.536;8.500;2022-11-03T05:14:01;9.60;;;4.43;;
38240;SDS011;24037;49.536;8.500;2022-11-03T05:16:43;10.43;;;5.28;;
38240;SDS011;24037;49.536;8.500;2022-11-03T05:19:20;9.40;;;4.35;;
38240;SDS011;24037;49.536;8.500;2022-11-03T05:22:01;9.32;;;3.58;;
38240;SDS011;24037;49.536;8.500;2022-11-03T05:24:28;10.13;;;4.53;;
38240;SDS011;24037;49.536;8.500;2022-11-03T05:26:55;11.25;;;3.65;;
38240;SDS011;24037;49.536;8.500;2022-11-03T05:29:24;8.02;;;3.72;;
38240;SDS011;24037;49.536;8.500;2022-11-03T05:31:56;8.57;;;3.95;;
38240;SDS011;24037;49.536;8.500;2022-11-03T05:36:55;7.82;;;4.45;;
38240;SDS011;24037;49.536;8.500;2022-11-03T05:42:23;13.30;;;4.30;;
38240;SDS011;24037;49.536;8.500;2022-11-03T05:44:51;11.65;;;4.25;;
38240;SDS011;24037;49.536;8.500;2022-11-03T05:49:49;6.10;;;2.53;;
38240;SDS011;24037;49.536;8.500;2022-11-03T05:52:20;7.47;;;2.60;;
38240;SDS011;24037;49.536;8.500;2022-11-03T05:54:48;11.90;;;4.05;;
38240;SDS011;24037;49.536;8.500;2022-11-03T05:57:15;9.63;;;3.40;;
38240;SDS011;24037;49.536;8.500;2022-11-03T05:59:47;9.77;;;4.18;;
38240;SDS011;24037;49.536;8.500;2022-11-03T06:05:07;11.35;;;5.05;;
38240;SDS011;24037;49.536;8.500;2022-11-03T06:07:39;11.32;;;4.43;;
38240;SDS011;24037;49.536;8.500;2022-11-03T06:10:26;11.57;;;4.03;;
38240;SDS011;24037;49.536;8.500;2022-11-03T06:12:55;9.63;;;4.47;;
38240;SDS011;24037;49.536;8.500;2022-11-03T06:15:31;8.85;;;4.15;;
38240;SDS011;24037;49.536;8.500;2022-11-03T06:18:00;12.48;;;4.15;;
38240;SDS011;24037;49.536;8.500;2022-11-03T06:20:37;10.80;;;4.60;;
38240;SDS011;24037;49.536;8.500;2022-11-03T06:23:04;10.63;;;3.92;;
38240;SDS011;24037;49.536;8.500;2022-11-03T06:25:40;10.73;;;4.00;;
38240;SDS011;24037;49.536;8.500;2022-11-03T06:28:10;10.85;;;4.20;;
38240;SDS011;24037;49.536;8.500;2022-11-03T06:30:42;7.63;;;4.15;;
38240;SDS011;24037;49.536;8.500;2022-11-03T06:35:42;15.15;;;5.85;;
38240;SDS011;24037;49.536;8.500;2022-11-03T06:38:17;10.05;;;5.57;;
38240;SDS011;24037;49.536;8.500;2022-11-03T06:40:46;9.25;;;5.15;;
38240;SDS011;24037;49.536;8.500;2022-11-03T06:43:20;10.27;;;4.90;;
38240;SDS011;24037;49.536;8.500;2022-11-03T06:45:53;7.55;;;5.07;;
38240;SDS011;24037;49.536;8.500;2022-11-03T06:48:26;24.17;;;12.40;;
38240;SDS011;24037;49.536;8.500;2022-11-03T06:50:54;23.17;;;11.38;;
38240;SDS011;24037;49.536;8.500;2022-11-03T06:53:23;21.60;;;11.70;;
38240;SDS011;24037;49.536;8.500;2022-11-03T06:55:51;12.55;;;7.00;;
38240;SDS011;24037;49.536;8.500;2022-11-03T06:58:28;20.27;;;9.48;;
38240;SDS011;24037;49.536;8.500;2022-11-03T07:00:57;11.48;;;8.90;;
38240;SDS011;24037;49.536;8.500;2022-11-03T07:03:27;11.88;;;7.35;;
38240;SDS011;24037;49.536;8.500;2022-11-03T07:08:36;13.00;;;5.63;;
38240;SDS011;24037;49.536;8.500;2022-11-03T07:11:10;7.65;;;4.47;;
38240;SDS011;24037;49.536;8.500;2022-11-03T07:13:41;10.55;;;4.47;;
38240;SDS011;24037;49.536;8.500;2022-11-03T07:18:48;7.47;;;3.55;;
38240;SDS011;24037;49.536;8.500;2022-11-03T07:23:46;7.57;;;4.50;;
38240;SDS011;24037;49.536;8.500;2022-11-03T07:26:12;7.13;;;4.15;;
38240;SDS011;24037;49.536;8.500;2022-11-03T07:28:38;7.55;;;4.55;;
38240;SDS011;24037;49.536;8.500;2022-11-03T07:31:10;10.55;;;5.68;;
38240;SDS011;24037;49.536;8.500;2022-11-03T07:33:43;6.47;;;4.07;;
38240;SDS011;24037;49.536;8.500;2022-11-03T07:36:11;10.85;;;5.28;;
38240;SDS011;24037;49.536;8.500;2022-11-03T07:38:41;12.00;;;7.43;;
38240;SDS011;24037;49.536;8.500;2022-11-03T07:41:11;12.77;;;5.85;;
38240;SDS011;24037;49.536;8.500;2022-11-03T07:43:56;10.27;;;5.60;;
38240;SDS011;24037;49.536;8.500;2022-11-03T07:46:24;10.70;;;4.72;;
38240;SDS011;24037;49.536;8.500;2022-11-03T07:48:55;8.77;;;4.13;;
38240;SDS011;24037;49.536;8.500;2022-11-03T07:51:30;7.88;;;3.60;;
38240;SDS011;24037;49.536;8.500;2022-11-03T07:56:58;12.75;;;5.35;;
38240;SDS011;24037;49.536;8.500;2022-11-03T07:59:32;8.98;;;4.63;;
38240;SDS011;24037;49.536;8.500;2022-11-03T08:02:38;12.70;;;6.05;;
38240;SDS011;24037;49.536;8.500;2022-11-03T08:04:57;9.77;;;5.10;;
38240;SDS011;24037;49.536;8.500;2022-11-03T08:07:24;10.05;;;4.80;;
38240;SDS011;24037;49.536;8.500;2022-11-03T08:09:52;14.90;;;6.47;;
38240;SDS011;24037;49.536;8.500;2022-11-03T08:12:19;9.82;;;4.88;;
38240;SDS011;24037;49.536;8.500;2022-11-03T08:14:45;21.63;;;5.13;;
38240;SDS011;24037;49.536;8.500;2022-11-03T08:17:12;4.80;;;3.55;;
38240;SDS011;24037;49.536;8.500;2022-11-03T08:19:39;11.27;;;4.10;;
38240;SDS011;24037;49.536;8.500;2022-11-03T08:22:05;13.38;;;4.93;;
38240;SDS011;24037;49.536;8.500;2022-11-03T08:24:31;7.32;;;4.10;;
38240;SDS011;24037;49.536;8.500;2022-11-03T08:26:57;9.90;;;5.80;;
38240;SDS011;24037;49.536;8.500;2022-11-03T08:29:24;14.00;;;6.32;;
38240;SDS011;24037;49.536;8.500;2022-11-03T08:31:52;10.02;;;7.07;;
38240;SDS011;24037;49.536;8.500;2022-11-03T08:34:18;10.57;;;6.13;;
38240;SDS011;24037;49.536;8.500;2022-11-03T08:36:45;10.60;;;6.13;;
38240;SDS011;24037;49.536;8.500;2022-11-03T08:39:11;14.48;;;7.00;;
38240;SDS011;24037;49.536;8.500;2022-11-03T08:41:37;11.73;;;7.25;;
38240;SDS011;24037;49.536;8.500;2022-11-03T08:44:03;12.20;;;5.75;;
38240;SDS011;24037;49.536;8.500;2022-11-03T08:46:30;13.38;;;6.70;;
38240;SDS011;24037;49.536;8.500;2022-11-03T08:48:57;12.05;;;7.10;;
38240;SDS011;24037;49.536;8.500;2022-11-03T08:51:23;15.35;;;7.97;;
38240;SDS011;24037;49.536;8.500;2022-11-03T08:53:49;10.30;;;5.30;;
38240;SDS011;24037;49.536;8.500;2022-11-03T08:56:18;10.70;;;4.75;;
38240;SDS011;24037;49.536;8.500;2022-11-03T08:58:45;12.93;;;5.55;;
38240;SDS011;24037;49.536;8.500;2022-11-03T09:01:12;12.70;;;4.50;;
38240;SDS011;24037;49.536;8.500;2022-11-03T09:03:39;8.32;;;5.25;;
38240;SDS011;24037;49.536;8.500;2022-11-03T09:06:05;8.43;;;4.00;;
38240;SDS011;24037;49.536;8.500;2022-11-03T09:08:32;13.23;;;4.30;;
38240;SDS011;24037;49.536;8.500;2022-11-03T09:10:58;12.60;;;4.30;;
38240;SDS011;24037;49.536;8.500;2022-11-03T09:13:24;5.30;;;3.20;;
38240;SDS011;24037;49.536;8.500;2022-11-03T09:15:50;12.43;;;3.92;;
38240;SDS011;24037;49.536;8.500;2022-11-03T09:18:17;7.10;;;3.05;;
38240;SDS011;24037;49.536;8.500;2022-11-03T09:20:43;9.00;;;3.13;;
38240;SDS011;24037;49.536;8.500;2022-11-03T09:23:09;9.40;;;3.35;;
38240;SDS011;24037;49.536;8.500;2022-11-03T09:25:35;5.95;;;3.13;;
38240;SDS011;24037;49.536;8.500;2022-11-03T09:28:03;6.45;;;3.40;;
38240;SDS011;24037;49.536;8.500;2022-11-03T09:30:29;7.60;;;3.13;;
38240;SDS011;24037;49.536;8.500;2022-11-03T09:32:55;7.53;;;3.40;;
38240;SDS011;24037;49.536;8.500;2022-11-03T09:35:21;12.18;;;3.10;;
38240;SDS011;24037;49.536;8.500;2022-11-03T09:37:48;11.18;;;2.78;;
38240;SDS011;24037;49.536;8.500;2022-11-03T09:40:14;6.95;;;2.97;;
38240;SDS011;24037;49.536;8.500;2022-11-03T09:42:41;7.53;;;3.50;;
38240;SDS011;24037;49.536;8.500;2022-11-03T09:45:08;6.85;;;2.45;;
38240;SDS011;24037;49.536;8.500;2022-11-03T09:47:36;5.93;;;2.33;;
38240;SDS011;24037;49.536;8.500;2022-11-03T09:50:05;8.90;;;2.50;;
38240;SDS011;24037;49.536;8.500;2022-11-03T09:52:33;8.88;;;2.45;;
38240;SDS011;24037;49.536;8.500;2022-11-03T09:55:01;8.73;;;3.45;;
38240;SDS011;24037;49.536;8.500;2022-11-03T09:57:28;7.43;;;2.60;;
38240;SDS011;24037;49.536;8.500;2022-11-03T09:59:56;6.90;;;2.70;;
38240;SDS011;24037;49.536;8.500;2022-11-03T10:02:28;5.28;;;2.58;;
38240;SDS011;24037;49.536;8.500;2022-11-03T10:04:57;12.85;;;4.20;;
38240;SDS011;24037;49.536;8.500;2022-11-03T10:07:26;7.38;;;3.65;;
38240;SDS011;24037;49.536;8.500;2022-11-03T10:09:54;10.55;;;2.92;;
38240;SDS011;24037;49.536;8.500;2022-11-03T10:12:23;9.38;;;2.78;;
38240;SDS011;24037;49.536;8.500;2022-11-03T10:14:50;7.95;;;2.88;;
38240;SDS011;24037;49.536;8.500;2022-11-03T10:17:19;9.30;;;3.17;;
38240;SDS011;24037;49.536;8.500;2022-11-03T10:19:55;10.40;;;2.83;;
38240;SDS011;24037;49.536;8.500;2022-11-03T10:22:22;9.15;;;3.50;;
38240;SDS011;24037;49.536;8.500;2022-11-03T10:24:49;8.02;;;2.67;;
38240;SDS011;24037;49.536;8.500;2022-11-03T10:28:17;6.78;;;2.13;;
38240;SDS011;24037;49.536;8.500;2022-11-03T10:30:55;5.95;;;1.70;;
38240;SDS011;24037;49.536;8.500;2022-11-03T10:35:56;5.35;;;2.55;;
38240;SDS011;24037;49.536;8.500;2022-11-03T10:40:51;6.03;;;2.60;;
38240;SDS011;24037;49.536;8.500;2022-11-03T10:43:18;6.32;;;3.15;;
38240;SDS011;24037;49.536;8.500;2022-11-03T10:45:45;7.65;;;1.80;;
38240;SDS011;24037;49.536;8.500;2022-11-03T10:48:11;4.63;;;2.17;;
38240;SDS011;24037;49.536;8.500;2022-11-03T10:50:40;4.97;;;1.63;;
38240;SDS011;24037;49.536;8.500;2022-11-03T10:53:12;7.32;;;1.90;;
38240;SDS011;24037;49.536;8.500;2022-11-03T10:55:42;8.15;;;2.05;;
38240;SDS011;24037;49.536;8.500;2022-11-03T10:58:09;8.98;;;1.80;;
38240;SDS011;24037;49.536;8.500;2022-11-03T11:00:35;5.53;;;1.90;;
38240;SDS011;24037;49.536;8.500;2022-11-03T11:03:04;6.93;;;2.33;;
38240;SDS011;24037;49.536;8.500;2022-11-03T11:05:30;7.13;;;3.30;;
38240;SDS011;24037;49.536;8.500;2022-11-03T11:07:57;8.65;;;2.35;;
38240;SDS011;24037;49.536;8.500;2022-11-03T11:10:24;5.57;;;2.35;;
38240;SDS011;24037;49.536;8.500;2022-11-03T11:13:10;6.00;;;1.88;;
38240;SDS011;24037;49.536;8.500;2022-11-03T11:15:42;7.07;;;2.10;;
38240;SDS011;24037;49.536;8.500;2022-11-03T11:18:10;8.65;;;2.03;;
38240;SDS011;24037;49.536;8.500;2022-11-03T11:23:43;6.55;;;2.47;;
38240;SDS011;24037;49.536;8.500;2022-11-03T11:26:14;10.55;;;2.35;;
38240;SDS011;24037;49.536;8.500;2022-11-03T11:31:43;6.10;;;2.33;;
38240;SDS011;24037;49.536;8.500;2022-11-03T11:36:44;5.07;;;2.25;;
38240;SDS011;24037;49.536;8.500;2022-11-03T11:47:42;8.43;;;2.80;;
38240;SDS011;24037;49.536;8.500;2022-11-03T11:50:14;8.73;;;3.38;;
38240;SDS011;24037;49.536;8.500;2022-11-03T11:58:31;7.88;;;3.70;;
38240;SDS011;24037;49.536;8.500;2022-11-03T12:01:23;4.82;;;1.88;;
38240;SDS011;24037;49.536;8.500;2022-11-03T12:03:56;5.30;;;2.88;;
38240;SDS011;24037;49.536;8.500;2022-11-03T12:06:31;6.75;;;2.40;;
38240;SDS011;24037;49.536;8.500;2022-11-03T12:11:47;5.32;;;2.30;;
38240;SDS011;24037;49.536;8.500;2022-11-03T12:16:54;9.15;;;2.90;;
38240;SDS011;24037;49.536;8.500;2022-11-03T12:19:37;7.15;;;3.42;;
38240;SDS011;24037;49.536;8.500;2022-11-03T12:22:10;7.25;;;2.88;;
38240;SDS011;24037;49.536;8.500;2022-11-03T12:25:01;4.38;;;2.00;;
38240;SDS011;24037;49.536;8.500;2022-11-03T12:29:56;9.02;;;2.92;;
38240;SDS011;24037;49.536;8.500;2022-11-03T12:32:24;6.07;;;2.95;;
38240;SDS011;24037;49.536;8.500;2022-11-03T12:34:50;5.70;;;2.53;;
38240;SDS011;24037;49.536;8.500;2022-11-03T12:37:18;6.15;;;2.58;;
38240;SDS011;24037;49.536;8.500;2022-11-03T12:39:44;6.88;;;2.17;;
38240;SDS011;24037;49.536;8.500;2022-11-03T12:42:10;8.50;;;2.65;;
38240;SDS011;24037;49.536;8.500;2022-11-03T12:44:37;4.75;;;2.92;;
38240;SDS011;24037;49.536;8.500;2022-11-03T12:47:03;6.68;;;3.10;;
38240;SDS011;24037;49.536;8.500;2022-11-03T12:49:29;6.15;;;3.00;;
38240;SDS011;24037;49.536;8.500;2022-11-03T12:51:56;8.90;;;3.25;;
38240;SDS011;24037;49.536;8.500;2022-11-03T12:54:30;7.07;;;2.70;;
38240;SDS011;24037;49.536;8.500;2022-11-03T12:56:57;7.00;;;3.15;;
38240;SDS011;24037;49.536;8.500;2022-11-03T12:59:23;8.85;;;2.95;;
38240;SDS011;24037;49.536;8.500;2022-11-03T13:01:49;5.38;;;3.00;;
38240;SDS011;24037;49.536;8.500;2022-11-03T13:04:17;7.03;;;2.92;;
38240;SDS011;24037;49.536;8.500;2022-11-03T13:06:43;10.40;;;3.58;;
38240;SDS011;24037;49.536;8.500;2022-11-03T13:09:09;5.05;;;3.03;;
38240;SDS011;24037;49.536;8.500;2022-11-03T13:11:36;6.03;;;3.05;;
38240;SDS011;24037;49.536;8.500;2022-11-03T13:14:22;6.40;;;2.53;;
38240;SDS011;24037;49.536;8.500;2022-11-03T13:16:48;7.03;;;2.97;;
38240;SDS011;24037;49.536;8.500;2022-11-03T13:19:14;8.77;;;3.22;;
38240;SDS011;24037;49.536;8.500;2022-11-03T13:21:40;6.78;;;2.72;;
38240;SDS011;24037;49.536;8.500;2022-11-03T13:24:06;8.30;;;2.40;;
38240;SDS011;24037;49.536;8.500;2022-11-03T13:26:33;6.38;;;2.92;;
38240;SDS011;24037;49.536;8.500;2022-11-03T13:28:59;6.30;;;2.60;;
38240;SDS011;24037;49.536;8.500;2022-11-03T13:31:25;6.03;;;2.70;;
38240;SDS011;24037;49.536;8.500;2022-11-03T13:33:51;6.50;;;3.25;;
38240;SDS011;24037;49.536;8.500;2022-11-03T13:36:17;8.05;;;2.92;;
38240;SDS011;24037;49.536;8.500;2022-11-03T13:38:44;7.03;;;2.97;;
38240;SDS011;24037;49.536;8.500;2022-11-03T13:41:10;7.38;;;3.42;;
38240;SDS011;24037;49.536;8.500;2022-11-03T13:43:36;6.45;;;3.05;;
38240;SDS011;24037;49.536;8.500;2022-11-03T13:46:02;11.70;;;3.17;;
38240;SDS011;24037;49.536;8.500;2022-11-03T13:48:29;7.97;;;2.85;;
38240;SDS011;24037;49.536;8.500;2022-11-03T13:50:55;11.02;;;3.75;;
38240;SDS011;24037;49.536;8.500;2022-11-03T13:53:22;12.70;;;5.03;;
38240;SDS011;24037;49.536;8.500;2022-11-03T13:55:49;10.57;;;3.00;;
38240;SDS011;24037;49.536;8.500;2022-11-03T13:58:15;7.93;;;3.40;;
38240;SDS011;24037;49.536;8.500;2022-11-03T14:00:41;8.57;;;2.67;;
38240;SDS011;24037;49.536;8.500;2022-11-03T14:03:07;11.63;;;3.22;;
38240;SDS011;24037;49.536;8.500;2022-11-03T14:05:33;7.00;;;3.40;;
38240;SDS011;24037;49.536;8.500;2022-11-03T14:08:00;5.50;;;2.60;;
38240;SDS011;24037;49.536;8.500;2022-11-03T14:10:26;7.20;;;2.65;;
38240;SDS011;24037;49.536;8.500;2022-11-03T14:12:52;5.78;;;3.10;;
38240;SDS011;24037;49.536;8.500;2022-11-03T14:15:18;5.60;;;2.90;;
38240;SDS011;24037;49.536;8.500;2022-11-03T14:17:45;6.03;;;3.28;;
38240;SDS011;24037;49.536;8.500;2022-11-03T14:20:11;8.77;;;2.97;;
38240;SDS011;24037;49.536;8.500;2022-11-03T14:22:38;7.95;;;3.22;;
38240;SDS011;24037;49.536;8.500;2022-11-03T14:25:05;17.10;;;3.45;;
38240;SDS011;24037;49.536;8.500;2022-11-03T14:27:32;13.48;;;3.95;;
38240;SDS011;24037;49.536;8.500;2022-11-03T14:29:58;9.07;;;3.75;;
38240;SDS011;24037;49.536;8.500;2022-11-03T14:32:24;7.15;;;2.60;;
38240;SDS011;24037;49.536;8.500;2022-11-03T14:34:51;8.23;;;3.50;;
38240;SDS011;24037;49.536;8.500;2022-11-03T14:37:17;7.90;;;3.45;;
38240;SDS011;24037;49.536;8.500;2022-11-03T14:39:43;10.13;;;3.65;;
38240;SDS011;24037;49.536;8.500;2022-11-03T14:42:10;10.65;;;4.40;;
38240;SDS011;24037;49.536;8.500;2022-11-03T14:44:41;9.45;;;3.65;;
38240;SDS011;24037;49.536;8.500;2022-11-03T14:47:10;7.63;;;3.65;;
38240;SDS011;24037;49.536;8.500;2022-11-03T14:49:46;8.07;;;3.22;;
38240;SDS011;24037;49.536;8.500;2022-11-03T14:52:13;8.90;;;3.92;;
38240;SDS011;24037;49.536;8.500;2022-11-03T14:54:41;8.52;;;3.90;;
38240;SDS011;24037;49.536;8.500;2022-11-03T14:57:07;11.23;;;4.00;;
38240;SDS011;24037;49.536;8.500;2022-11-03T14:59:34;10.20;;;4.53;;
38240;SDS011;24037;49.536;8.500;2022-11-03T15:02:01;13.07;;;4.30;;
38240;SDS011;24037;49.536;8.500;2022-11-03T15:04:28;9.25;;;4.18;;
38240;SDS011;24037;49.536;8.500;2022-11-03T15:06:54;13.52;;;4.40;;
38240;SDS011;24037;49.536;8.500;2022-11-03T15:09:20;11.52;;;4.78;;
38240;SDS011;24037;49.536;8.500;2022-11-03T15:11:46;9.98;;;4.53;;
38240;SDS011;24037;49.536;8.500;2022-11-03T15:14:12;12.02;;;4.57;;
38240;SDS011;24037;49.536;8.500;2022-11-03T15:16:39;11.70;;;4.43;;
38240;SDS011;24037;49.536;8.500;2022-11-03T15:19:06;8.32;;;4.00;;
38240;SDS011;24037;49.536;8.500;2022-11-03T15:21:32;12.02;;;6.00;;
38240;SDS011;24037;49.536;8.500;2022-11-03T15:23:59;13.30;;;5.10;;
38240;SDS011;24037;49.536;8.500;2022-11-03T15:26:25;13.40;;;5.05;;
38240;SDS011;24037;49.536;8.500;2022-11-03T15:28:51;12.05;;;4.78;;
38240;SDS011;24037;49.536;8.500;2022-11-03T15:31:18;10.05;;;4.32;;
38240;SDS011;24037;49.536;8.500;2022-11-03T15:33:44;10.27;;;4.47;;
38240;SDS011;24037;49.536;8.500;2022-11-03T15:36:10;9.13;;;3.85;;
38240;SDS011;24037;49.536;8.500;2022-11-03T15:38:36;9.45;;;4.35;;
38240;SDS011;24037;49.536;8.500;2022-11-03T15:41:02;8.98;;;4.00;;
38240;SDS011;24037;49.536;8.500;2022-11-03T15:43:42;6.90;;;4.15;;
38240;SDS011;24037;49.536;8.500;2022-11-03T15:46:10;12.38;;;4.97;;
38240;SDS011;24037;49.536;8.500;2022-11-03T15:48:37;8.55;;;3.97;;
38240;SDS011;24037;49.536;8.500;2022-11-03T15:51:03;9.35;;;4.78;;
38240;SDS011;24037;49.536;8.500;2022-11-03T15:53:30;12.88;;;4.95;;
38240;SDS011;24037;49.536;8.500;2022-11-03T15:55:56;9.00;;;4.82;;
38240;SDS011;24037;49.536;8.500;2022-11-03T15:58:22;12.50;;;5.45;;
38240;SDS011;24037;49.536;8.500;2022-11-03T16:00:48;13.40;;;6.60;;
38240;SDS011;24037;49.536;8.500;2022-11-03T16:03:15;10.27;;;6.03;;
38240;SDS011;24037;49.536;8.500;2022-11-03T16:05:41;12.35;;;5.13;;
38240;SDS011;24037;49.536;8.500;2022-11-03T16:08:07;11.43;;;3.85;;
38240;SDS011;24037;49.536;8.500;2022-11-03T16:10:33;7.38;;;3.10;;
38240;SDS011;24037;49.536;8.500;2022-11-03T16:12:59;12.00;;;3.70;;
38240;SDS011;24037;49.536;8.500;2022-11-03T16:15:26;9.80;;;3.70;;
38240;SDS011;24037;49.536;8.500;2022-11-03T16:17:52;8.95;;;3.47;;
38240;SDS011;24037;49.536;8.500;2022-11-03T16:20:18;13.73;;;5.07;;
38240;SDS011;24037;49.536;8.500;2022-11-03T16:22:45;10.80;;;4.68;;
38240;SDS011;24037;49.536;8.500;2022-11-03T16:25:11;11.35;;;3.75;;